Time;durP1;ratioP1;P1;durP2;ratioP2;P2;SDS_P1;SDS_P2;PMS_P1;PMS_P2;Temp;Humidity;BMP_temperature;BMP_pressure;BME280_temperature;BME280_humidity;BME280_pressure;Samples;Min_cycle;Max_cycle;Signal;HPM_P1;HPM_P2
2023/05/28 00:04:32;;;;;;;8.30;5.75;;;;;;;;;;12673761;23;20426;-94
2023/05/28 00:09:36;;;;;;;8.53;5.77;;;;;;;;;;12674139;23;20399;-94
2023/05/28 00:14:38;;;;;;;7.78;5.55;;;;;;;;;;12693194;23;20594;-94
2023/05/28 00:19:40;;;;;;;9.90;5.60;;;;;;;;;;12673027;23;20394;-93
2023/05/28 00:24:44;;;;;;;8.55;5.40;;;;;;;;;;12672258;23;20422;-92
2023/05/28 00:29:47;;;;;;;7.60;5.40;;;;;;;;;;12673254;23;20379;-94
2023/05/28 00:34:49;;;;;;;9.60;5.57;;;;;;;;;;12673054;23;20375;-93
2023/05/28 00:39:53;;;;;;;8.70;5.70;;;;;;;;;;12672164;23;20422;-93
2023/05/28 00:44:55;;;;;;;11.50;6.37;;;;;;;;;;12692656;23;20378;-93
2023/05/28 00:50:00;;;;;;;8.17;6.00;;;;;;;;;;12672364;23;20914;-94
2023/05/28 00:55:10;;;;;;;7.93;6.07;;;;;;;;;;12675321;23;20835;-93
2023/05/28 01:00:13;;;;;;;8.55;6.03;;;;;;;;;;12696843;23;20382;-92
2023/05/28 01:05:17;;;;;;;10.73;6.45;;;;;;;;;;12676034;23;20375;-93
2023/05/28 01:10:20;;;;;;;9.82;6.32;;;;;;;;;;12676471;23;20445;-94
2023/05/28 01:15:24;;;;;;;7.43;5.90;;;;;;;;;;12678002;23;20839;-93
2023/05/28 01:20:28;;;;;;;8.77;5.60;;;;;;;;;;12675666;23;20447;-94
2023/05/28 01:25:32;;;;;;;7.20;5.83;;;;;;;;;;12675611;23;20450;-93
2023/05/28 01:30:34;;;;;;;8.13;5.80;;;;;;;;;;12675453;23;20375;-93
2023/05/28 01:35:36;;;;;;;10.65;5.97;;;;;;;;;;12675670;23;20371;-93
2023/05/28 01:40:44;;;;;;;8.68;5.72;;;;;;;;;;12676484;23;20501;-95
2023/05/28 01:45:48;;;;;;;8.07;6.30;;;;;;;;;;12707701;23;20438;-96
2023/05/28 01:50:50;;;;;;;9.27;5.95;;;;;;;;;;12689955;23;20383;-95
2023/05/28 01:55:55;;;;;;;7.55;5.50;;;;;;;;;;12690487;23;20445;-95
2023/05/28 02:01:08;;;;;;;8.13;5.60;;;;;;;;;;12694443;23;20368;-95
2023/05/28 02:06:11;;;;;;;10.43;5.55;;;;;;;;;;12693474;23;20379;-95
2023/05/28 02:11:14;;;;;;;9.15;5.97;;;;;;;;;;12691368;23;20407;-95
2023/05/28 02:16:17;;;;;;;8.23;5.95;;;;;;;;;;12691896;23;20769;-95
2023/05/28 02:21:19;;;;;;;8.82;5.63;;;;;;;;;;12692151;23;21073;-95
2023/05/28 02:26:23;;;;;;;7.47;5.63;;;;;;;;;;12689884;23;20419;-95
2023/05/28 02:31:26;;;;;;;9.80;6.20;;;;;;;;;;12692028;23;20368;-95
2023/05/28 02:36:29;;;;;;;6.83;5.57;;;;;;;;;;12707266;23;20453;-95
2023/05/28 02:41:33;;;;;;;8.83;5.70;;;;;;;;;;12690841;23;20827;-95
2023/05/28 02:46:35;;;;;;;7.82;5.60;;;;;;;;;;12688209;23;20457;-94
2023/05/28 02:51:38;;;;;;;8.07;5.90;;;;;;;;;;12688345;23;20403;-94
2023/05/28 02:56:41;;;;;;;7.28;5.30;;;;;;;;;;12690600;23;20422;-96
2023/05/28 03:01:44;;;;;;;7.70;5.70;;;;;;;;;;12686040;23;20371;-96
2023/05/28 03:06:46;;;;;;;8.83;5.70;;;;;;;;;;12687262;23;20371;-95
2023/05/28 03:11:50;;;;;;;9.50;5.90;;;;;;;;;;12684165;23;20371;-94
2023/05/28 03:16:52;;;;;;;7.28;5.97;;;;;;;;;;12683636;23;20387;-95
2023/05/28 03:21:55;;;;;;;7.90;6.00;;;;;;;;;;12704619;23;20906;-95
2023/05/28 03:27:01;;;;;;;8.27;6.25;;;;;;;;;;12686746;23;20411;-95
2023/05/28 03:32:05;;;;;;;7.10;6.28;;;;;;;;;;12685230;23;20438;-94
2023/05/28 03:37:08;;;;;;;8.67;6.37;;;;;;;;;;12680676;23;20462;-94
2023/05/28 03:42:11;;;;;;;9.93;6.10;;;;;;;;;;12683385;23;20374;-95
2023/05/28 03:47:14;;;;;;;8.45;6.45;;;;;;;;;;12686350;23;20379;-95
2023/05/28 03:52:16;;;;;;;8.43;6.17;;;;;;;;;;12682895;23;20472;-96
2023/05/28 03:57:19;;;;;;;7.90;6.75;;;;;;;;;;12687482;23;20383;-95
2023/05/28 04:02:22;;;;;;;12.30;7.10;;;;;;;;;;12684010;23;20375;-94
2023/05/28 04:07:25;;;;;;;9.27;6.63;;;;;;;;;;12681717;23;20435;-94
2023/05/28 04:12:28;;;;;;;10.40;7.28;;;;;;;;;;12681442;23;20367;-94
2023/05/28 04:17:31;;;;;;;9.60;7.15;;;;;;;;;;12681591;23;20711;-95
2023/05/28 04:22:33;;;;;;;10.07;7.30;;;;;;;;;;12702240;23;20371;-95
2023/05/28 04:27:37;;;;;;;9.80;7.32;;;;;;;;;;12683948;23;20367;-94
2023/05/28 04:32:40;;;;;;;9.23;6.82;;;;;;;;;;12704332;23;20402;-93
2023/05/28 04:37:42;;;;;;;10.27;7.20;;;;;;;;;;12688756;23;20395;-95
2023/05/28 04:42:47;;;;;;;8.82;6.57;;;;;;;;;;12712990;23;20367;-94
2023/05/28 04:47:50;;;;;;;8.33;6.50;;;;;;;;;;12688992;23;20403;-95
2023/05/28 04:52:52;;;;;;;9.50;7.07;;;;;;;;;;12692749;23;20371;-93
2023/05/28 04:57:56;;;;;;;8.60;6.60;;;;;;;;;;12693177;23;20439;-95
2023/05/28 05:02:58;;;;;;;9.73;6.85;;;;;;;;;;12681620;23;20394;-95
2023/05/28 05:08:01;;;;;;;10.10;6.90;;;;;;;;;;12678674;23;20430;-95
2023/05/28 05:13:05;;;;;;;8.77;7.10;;;;;;;;;;12681431;23;20371;-94
2023/05/28 05:18:07;;;;;;;8.63;7.00;;;;;;;;;;12679559;23;20441;-93
2023/05/28 05:23:09;;;;;;;8.10;6.53;;;;;;;;;;12674227;23;20370;-95
2023/05/28 05:28:13;;;;;;;9.57;6.70;;;;;;;;;;12673752;23;20367;-94
2023/05/28 05:33:15;;;;;;;12.07;7.30;;;;;;;;;;12678483;23;20371;-95
2023/05/28 05:38:18;;;;;;;9.45;7.15;;;;;;;;;;12687630;23;20383;-95
2023/05/28 05:43:22;;;;;;;8.33;6.70;;;;;;;;;;12695127;23;20364;-96
2023/05/28 05:48:27;;;;;;;11.07;7.18;;;;;;;;;;12689198;23;20371;-94
2023/05/28 05:53:29;;;;;;;9.30;6.93;;;;;;;;;;12687924;23;20383;-95
2023/05/28 05:58:33;;;;;;;8.93;6.72;;;;;;;;;;12687420;23;20399;-95
2023/05/28 06:03:36;;;;;;;9.05;6.85;;;;;;;;;;12689747;23;20430;-96
2023/05/28 06:08:39;;;;;;;10.43;7.07;;;;;;;;;;12689274;23;20456;-95
2023/05/28 06:13:42;;;;;;;9.18;7.30;;;;;;;;;;12689109;23;20383;-96
2023/05/28 06:18:45;;;;;;;10.20;7.68;;;;;;;;;;12683393;23;20390;-95
2023/05/28 06:23:47;;;;;;;11.40;7.90;;;;;;;;;;12673637;23;20437;-95
2023/05/28 06:28:51;;;;;;;10.35;8.15;;;;;;;;;;12674798;23;20371;-95
2023/05/28 06:33:54;;;;;;;11.38;8.35;;;;;;;;;;12673273;23;20371;-95
2023/05/28 06:38:56;;;;;;;10.55;7.93;;;;;;;;;;12674156;23;20391;-94
2023/05/28 06:44:00;;;;;;;10.38;8.70;;;;;;;;;;12673946;23;20848;-94
2023/05/28 06:49:03;;;;;;;10.50;8.18;;;;;;;;;;12675617;23;20824;-94
2023/05/28 06:54:05;;;;;;;10.50;8.35;;;;;;;;;;12666977;23;20458;-94
2023/05/28 06:59:09;;;;;;;10.13;8.15;;;;;;;;;;12669010;23;20387;-95
2023/05/28 07:04:11;;;;;;;10.35;8.25;;;;;;;;;;12668162;23;20379;-94
2023/05/28 07:09:13;;;;;;;10.80;7.82;;;;;;;;;;12673093;23;20367;-92
2023/05/28 07:14:17;;;;;;;10.40;7.17;;;;;;;;;;12673674;23;20450;-94
2023/05/28 07:19:19;;;;;;;8.70;6.97;;;;;;;;;;12676316;23;20394;-96
2023/05/28 07:24:22;;;;;;;12.07;7.60;;;;;;;;;;12675429;23;20426;-94
2023/05/28 07:29:27;;;;;;;8.82;7.10;;;;;;;;;;12676626;23;20740;-95
2023/05/28 07:34:29;;;;;;;9.98;7.00;;;;;;;;;;12673535;23;20391;-94
2023/05/28 07:39:31;;;;;;;10.63;7.82;;;;;;;;;;12669574;23;20422;-96
2023/05/28 07:44:36;;;;;;;10.30;7.53;;;;;;;;;;12691189;23;20438;-95
2023/05/28 07:49:38;;;;;;;8.43;6.47;;;;;;;;;;12689330;23;20371;-95
2023/05/28 07:54:40;;;;;;;9.18;6.50;;;;;;;;;;12701873;23;20450;-95
2023/05/28 07:59:44;;;;;;;8.38;5.68;;;;;;;;;;12705925;23;20473;-95
2023/05/28 08:04:46;;;;;;;7.20;5.55;;;;;;;;;;12706111;23;20375;-94
2023/05/28 08:09:49;;;;;;;7.30;5.43;;;;;;;;;;12706042;23;20363;-94
2023/05/28 08:14:52;;;;;;;8.43;5.78;;;;;;;;;;12699454;23;20426;-92
2023/05/28 08:19:55;;;;;;;8.98;5.60;;;;;;;;;;12676370;23;20394;-94
2023/05/28 08:24:57;;;;;;;7.07;5.40;;;;;;;;;;12671438;23;20819;-94
2023/05/28 08:30:01;;;;;;;7.50;5.80;;;;;;;;;;12671229;23;20902;-94
2023/05/28 08:35:04;;;;;;;9.30;5.72;;;;;;;;;;12672619;23;20371;-94
2023/05/28 08:40:08;;;;;;;8.23;5.43;;;;;;;;;;12670901;23;20391;-94
2023/05/28 08:45:13;;;;;;;7.40;5.45;;;;;;;;;;12671575;23;20371;-95
2023/05/28 08:50:16;;;;;;;7.40;4.90;;;;;;;;;;12671278;23;20661;-93
2023/05/28 08:55:18;;;;;;;8.35;5.18;;;;;;;;;;12670678;23;20375;-94
2023/05/28 09:00:23;;;;;;;6.28;4.43;;;;;;;;;;12672887;23;20867;-94
2023/05/28 09:05:25;;;;;;;8.20;4.60;;;;;;;;;;12692348;23;20363;-95
2023/05/28 09:10:29;;;;;;;8.18;4.88;;;;;;;;;;12692910;23;20505;-94
2023/05/28 09:15:33;;;;;;;9.48;5.15;;;;;;;;;;12687207;23;20379;-93
2023/05/28 09:20:36;;;;;;;8.77;4.70;;;;;;;;;;12671311;23;20422;-95
2023/05/28 09:25:38;;;;;;;6.37;4.47;;;;;;;;;;12678898;23;20370;-94
2023/05/28 09:30:42;;;;;;;7.13;4.68;;;;;;;;;;12694233;23;20371;-95
2023/05/28 09:35:44;;;;;;;6.05;4.90;;;;;;;;;;12677705;23;20422;-95
2023/05/28 09:40:48;;;;;;;6.80;4.90;;;;;;;;;;12678378;23;20473;-93
2023/05/28 09:45:52;;;;;;;7.63;4.55;;;;;;;;;;12680691;23;20824;-94
2023/05/28 09:50:55;;;;;;;7.15;4.65;;;;;;;;;;12680825;23;20403;-94
2023/05/28 09:56:00;;;;;;;8.50;5.25;;;;;;;;;;12675416;23;20410;-95
2023/05/28 10:01:08;;;;;;;8.52;5.35;;;;;;;;;;12686437;23;20395;-94
2023/05/28 10:06:12;;;;;;;7.45;5.10;;;;;;;;;;12708449;23;20458;-95
2023/05/28 10:11:17;;;;;;;5.68;4.10;;;;;;;;;;12673452;23;20371;-95
2023/05/28 10:16:22;;;;;;;8.48;5.15;;;;;;;;;;12695101;23;20371;-94
2023/05/28 10:21:25;;;;;;;9.90;5.33;;;;;;;;;;12676025;23;20391;-95
2023/05/28 10:26:28;;;;;;;6.68;4.57;;;;;;;;;;12676709;23;20701;-96
2023/05/28 10:31:31;;;;;;;8.07;4.90;;;;;;;;;;12679442;23;20372;-96
2023/05/28 10:36:50;;;;;;;6.93;4.80;;;;;;;;;;12682328;23;20442;-95
2023/05/28 10:41:54;;;;;;;7.75;5.05;;;;;;;;;;12689737;23;20856;-94
2023/05/28 10:46:58;;;;;;;7.72;4.72;;;;;;;;;;12676412;23;20400;-95
2023/05/28 10:52:02;;;;;;;8.50;4.72;;;;;;;;;;12681441;23;20372;-96
2023/05/28 10:57:09;;;;;;;7.27;4.63;;;;;;;;;;12681344;23;20661;-93
2023/05/28 11:02:13;;;;;;;7.47;4.63;;;;;;;;;;12675377;23;20673;-94
2023/05/28 11:07:15;;;;;;;11.17;5.53;;;;;;;;;;12674011;23;20445;-94
2023/05/28 11:12:18;;;;;;;7.75;4.80;;;;;;;;;;12676851;23;20748;-94
2023/05/28 11:17:22;;;;;;;7.20;4.87;;;;;;;;;;12683938;23;20827;-95
2023/05/28 11:22:33;;;;;;;8.03;5.07;;;;;;;;;;12679465;23;20423;-95
2023/05/28 11:27:36;;;;;;;7.88;4.70;;;;;;;;;;12680914;23;20422;-95
2023/05/28 11:32:41;;;;;;;6.55;4.63;;;;;;;;;;12676675;23;20380;-94
2023/05/28 11:37:45;;;;;;;7.60;5.20;;;;;;;;;;12696886;23;20467;-94
2023/05/28 11:42:47;;;;;;;7.47;5.07;;;;;;;;;;12674302;23;20399;-95
2023/05/28 11:47:51;;;;;;;8.90;5.35;;;;;;;;;;12673154;23;20914;-94
2023/05/28 11:52:55;;;;;;;8.77;5.30;;;;;;;;;;12700402;23;20370;-93
2023/05/28 11:57:58;;;;;;;10.65;5.70;;;;;;;;;;12732596;23;20449;-94
2023/05/28 12:03:02;;;;;;;7.07;5.00;;;;;;;;;;12679545;23;20497;-93
2023/05/28 12:08:04;;;;;;;10.57;6.00;;;;;;;;;;12672924;23;20367;-95
2023/05/28 12:13:07;;;;;;;7.15;5.40;;;;;;;;;;12676161;23;21022;-95
2023/05/28 12:18:11;;;;;;;8.47;6.20;;;;;;;;;;12676437;23;20403;-95
2023/05/28 12:23:14;;;;;;;9.52;6.13;;;;;;;;;;12692793;23;20446;-94
2023/05/28 12:28:17;;;;;;;10.82;6.22;;;;;;;;;;12672375;23;20379;-94
2023/05/28 12:33:21;;;;;;;9.88;5.68;;;;;;;;;;12690574;23;20480;-94
2023/05/28 12:51:25;;;;;;;9.25;6.10;;;;;;;;;;13195056;22;1995796;-92
2023/05/28 12:56:28;;;;;;;8.77;6.20;;;;;;;;;;13184489;22;20425;-93
2023/05/28 13:01:30;;;;;;;11.47;6.67;;;;;;;;;;13195880;22;20360;-94
2023/05/28 13:06:34;;;;;;;9.35;5.97;;;;;;;;;;13203985;22;20383;-94
2023/05/28 13:11:37;;;;;;;8.85;6.07;;;;;;;;;;13204713;22;20382;-94
2023/05/28 13:16:39;;;;;;;8.13;5.70;;;;;;;;;;13200058;22;20372;-94
2023/05/28 13:21:43;;;;;;;8.52;6.20;;;;;;;;;;13209021;22;20357;-92
2023/05/28 13:26:45;;;;;;;11.60;6.93;;;;;;;;;;13228255;22;20398;-95
2023/05/28 13:31:48;;;;;;;8.80;5.70;;;;;;;;;;13247144;22;20369;-79
2023/05/28 13:36:52;;;;;;;6.97;5.63;;;;;;;;;;13217880;22;20377;-95
2023/05/28 13:41:54;;;;;;;8.18;5.65;;;;;;;;;;13223636;22;20452;-95
2023/05/28 13:46:56;;;;;;;8.83;5.80;;;;;;;;;;13244716;22;20354;-95
2023/05/28 13:52:01;;;;;;;9.00;5.73;;;;;;;;;;13226398;22;20361;-95
2023/05/28 13:57:03;;;;;;;8.90;5.40;;;;;;;;;;13222710;22;20378;-96
2023/05/28 14:02:05;;;;;;;8.73;5.53;;;;;;;;;;13229798;22;20349;-95
2023/05/28 14:07:10;;;;;;;6.90;4.90;;;;;;;;;;13211833;22;20422;-95
2023/05/28 14:12:12;;;;;;;6.72;5.05;;;;;;;;;;13213411;22;20452;-96
2023/05/28 14:17:14;;;;;;;7.63;5.35;;;;;;;;;;13216911;22;20435;-95
2023/05/28 14:22:18;;;;;;;9.02;5.30;;;;;;;;;;13216629;22;20398;-94
2023/05/28 14:27:20;;;;;;;9.02;5.22;;;;;;;;;;13217575;22;20354;-95
2023/05/28 14:32:23;;;;;;;8.40;5.40;;;;;;;;;;13239078;22;20361;-95
2023/05/28 14:37:26;;;;;;;7.28;5.20;;;;;;;;;;13215445;22;20373;-95
2023/05/28 14:42:29;;;;;;;7.23;5.20;;;;;;;;;;13218158;22;20357;-95
2023/05/28 14:47:31;;;;;;;7.60;4.83;;;;;;;;;;13211347;22;20362;-95
2023/05/28 14:52:35;;;;;;;6.70;4.93;;;;;;;;;;13213019;22;20369;-95
2023/05/28 14:57:37;;;;;;;7.75;4.95;;;;;;;;;;13233206;22;20399;-95
2023/05/28 15:02:40;;;;;;;6.40;5.05;;;;;;;;;;13212497;22;20363;-96
2023/05/28 15:07:43;;;;;;;7.90;4.78;;;;;;;;;;13213749;22;20436;-95
2023/05/28 15:12:46;;;;;;;6.43;4.85;;;;;;;;;;13215164;22;20383;-94
2023/05/28 15:17:48;;;;;;;5.45;4.65;;;;;;;;;;13239783;22;20365;-96
2023/05/28 15:22:52;;;;;;;6.45;4.60;;;;;;;;;;13241257;22;20357;-95
2023/05/28 15:27:55;;;;;;;7.50;4.60;;;;;;;;;;13228880;22;20365;-96
2023/05/28 15:32:58;;;;;;;5.82;4.90;;;;;;;;;;13205917;22;20349;-96
2023/05/28 15:38:03;;;;;;;8.50;5.00;;;;;;;;;;13204128;22;20423;-93
2023/05/28 15:43:06;;;;;;;7.05;4.63;;;;;;;;;;13224070;22;20417;-96
2023/05/28 15:48:08;;;;;;;8.18;5.10;;;;;;;;;;13203991;22;20350;-95
2023/05/28 15:53:12;;;;;;;6.53;4.40;;;;;;;;;;13228353;22;20526;-95
2023/05/28 15:58:14;;;;;;;6.13;4.50;;;;;;;;;;13188770;22;20381;-96
2023/05/28 16:03:19;;;;;;;5.70;4.33;;;;;;;;;;13211297;22;20350;-94
2023/05/28 16:08:23;;;;;;;6.45;4.80;;;;;;;;;;13207981;22;20365;-95
2023/05/28 16:13:29;;;;;;;7.20;4.63;;;;;;;;;;13186130;22;20378;-95
2023/05/28 16:18:32;;;;;;;7.63;5.20;;;;;;;;;;13193128;22;20378;-95
2023/05/28 16:23:36;;;;;;;7.38;5.35;;;;;;;;;;13186630;22;20362;-95
2023/05/28 16:28:38;;;;;;;7.37;5.40;;;;;;;;;;13198737;22;20384;-96
2023/05/28 16:33:41;;;;;;;7.63;4.90;;;;;;;;;;13184073;22;20391;-95
2023/05/28 16:38:45;;;;;;;5.80;4.53;;;;;;;;;;13181907;22;20373;-95
2023/05/28 16:43:49;;;;;;;6.40;4.40;;;;;;;;;;13181881;22;20434;-89
2023/05/28 16:48:52;;;;;;;8.60;5.60;;;;;;;;;;13173216;22;20395;-96
2023/05/28 16:53:56;;;;;;;4.95;4.03;;;;;;;;;;13183525;22;20655;-95
2023/05/28 16:58:59;;;;;;;5.23;4.10;;;;;;;;;;13186354;22;20377;-96
2023/05/28 17:04:01;;;;;;;5.28;3.78;;;;;;;;;;13205041;22;20744;-94
2023/05/28 17:09:05;;;;;;;6.00;3.95;;;;;;;;;;13186017;22;20682;-96
2023/05/28 17:14:07;;;;;;;6.93;4.22;;;;;;;;;;13188023;22;20358;-94
2023/05/28 17:19:09;;;;;;;5.50;3.95;;;;;;;;;;13186037;22;20399;-93
2023/05/28 17:24:13;;;;;;;7.07;4.07;;;;;;;;;;13208387;22;20366;-94
2023/05/28 17:29:16;;;;;;;5.33;4.10;;;;;;;;;;13187264;22;20366;-94
2023/05/28 17:34:18;;;;;;;5.88;4.30;;;;;;;;;;13191754;22;20358;-91
2023/05/28 17:39:22;;;;;;;6.55;4.47;;;;;;;;;;13193624;22;20381;-95
2023/05/28 17:44:25;;;;;;;7.45;5.30;;;;;;;;;;13189603;22;20387;-95
2023/05/28 17:49:27;;;;;;;6.67;3.90;;;;;;;;;;13223841;22;20345;-95
2023/05/28 17:54:31;;;;;;;5.10;3.88;;;;;;;;;;13213833;22;20365;-95
2023/05/28 17:59:33;;;;;;;6.70;4.10;;;;;;;;;;13185337;22;20435;-94
2023/05/28 18:04:36;;;;;;;6.10;4.50;;;;;;;;;;13184144;22;20358;-95
2023/05/28 18:09:39;;;;;;;6.60;4.47;;;;;;;;;;13185731;22;20399;-94
2023/05/28 18:14:42;;;;;;;7.15;4.30;;;;;;;;;;13208166;22;20826;-94
2023/05/28 18:19:45;;;;;;;12.15;6.88;;;;;;;;;;13184547;22;20426;-93
2023/05/28 18:24:49;;;;;;;9.38;6.05;;;;;;;;;;13206138;22;20357;-94
2023/05/28 18:29:52;;;;;;;10.60;5.55;;;;;;;;;;13203744;22;20362;-93
2023/05/28 18:34:54;;;;;;;8.48;5.78;;;;;;;;;;13202753;22;20361;-94
2023/05/28 18:39:58;;;;;;;8.90;5.43;;;;;;;;;;13183420;22;20853;-94
2023/05/28 18:45:00;;;;;;;11.15;7.85;;;;;;;;;;13188412;22;20431;-95
2023/05/28 18:50:02;;;;;;;10.18;6.70;;;;;;;;;;13182567;22;20388;-94
2023/05/28 18:55:08;;;;;;;7.05;4.80;;;;;;;;;;13180703;22;20715;-94
2023/05/28 19:00:11;;;;;;;7.20;4.40;;;;;;;;;;13203511;22;20374;-94
2023/05/28 19:05:13;;;;;;;8.63;4.88;;;;;;;;;;13190045;22;20358;-94
2023/05/28 19:10:17;;;;;;;6.60;4.65;;;;;;;;;;13171315;22;20392;-94
2023/05/28 19:15:20;;;;;;;6.93;5.22;;;;;;;;;;13169761;22;20426;-93
2023/05/28 19:20:22;;;;;;;7.80;4.87;;;;;;;;;;13174415;22;20439;-95
2023/05/28 19:25:26;;;;;;;8.00;5.28;;;;;;;;;;13171503;22;20899;-94
2023/05/28 19:30:28;;;;;;;8.93;5.25;;;;;;;;;;13185978;22;20373;-94
2023/05/28 19:35:33;;;;;;;8.40;5.50;;;;;;;;;;13172583;22;20361;-95
2023/05/28 19:40:37;;;;;;;7.27;5.13;;;;;;;;;;13173277;22;20373;-94
2023/05/28 19:45:39;;;;;;;9.75;6.13;;;;;;;;;;13185707;22;20357;-93
2023/05/28 19:50:42;;;;;;;8.98;6.05;;;;;;;;;;13217538;22;20373;-95
2023/05/28 19:55:45;;;;;;;7.57;4.95;;;;;;;;;;13182925;22;20370;-96
2023/05/28 20:00:49;;;;;;;9.48;5.10;;;;;;;;;;13206997;22;20403;-93
2023/05/28 20:05:51;;;;;;;8.48;5.28;;;;;;;;;;13213673;22;20358;-94
2023/05/28 20:10:54;;;;;;;8.83;5.20;;;;;;;;;;13213805;22;20346;-96
2023/05/28 20:15:57;;;;;;;8.63;5.63;;;;;;;;;;13228328;22;20401;-96
2023/05/28 20:21:00;;;;;;;7.60;5.07;;;;;;;;;;13227711;22;20385;-96
2023/05/28 20:26:04;;;;;;;7.40;4.83;;;;;;;;;;13217015;22;20353;-96
2023/05/28 20:31:06;;;;;;;6.87;4.87;;;;;;;;;;13201266;22;20373;-96
2023/05/28 20:36:09;;;;;;;7.30;5.13;;;;;;;;;;13234793;22;20353;-96
2023/05/28 20:41:13;;;;;;;9.53;5.37;;;;;;;;;;13241276;22;20398;-96
2023/05/28 20:46:15;;;;;;;7.50;5.32;;;;;;;;;;13227691;22;20365;-96
2023/05/28 20:51:18;;;;;;;7.07;5.20;;;;;;;;;;13233147;22;20370;-92
2023/05/28 20:56:25;;;;;;;8.47;5.57;;;;;;;;;;13196560;22;20377;-96
2023/05/28 21:01:27;;;;;;;8.97;5.27;;;;;;;;;;13192737;22;20377;-96
2023/05/28 21:06:32;;;;;;;7.75;5.25;;;;;;;;;;13200579;22;20353;-93
2023/05/28 21:11:35;;;;;;;7.50;5.20;;;;;;;;;;13225945;22;20380;-96
2023/05/28 21:16:38;;;;;;;7.47;4.90;;;;;;;;;;13200599;22;20400;-96
2023/05/28 21:21:40;;;;;;;7.45;5.13;;;;;;;;;;13212093;22;20500;-95
2023/05/28 21:26:44;;;;;;;7.28;5.10;;;;;;;;;;13201040;22;20366;-96
2023/05/28 21:31:46;;;;;;;8.63;5.22;;;;;;;;;;13197287;22;20365;-96
2023/05/28 21:36:49;;;;;;;9.67;5.33;;;;;;;;;;13199253;22;20369;-96
2023/05/28 21:41:52;;;;;;;8.80;5.82;;;;;;;;;;13202427;22;20411;-95
2023/05/28 21:46:55;;;;;;;7.78;5.25;;;;;;;;;;13202195;22;20369;-95
2023/05/28 21:51:57;;;;;;;9.25;5.78;;;;;;;;;;13201589;22;20400;-94
2023/05/28 21:57:01;;;;;;;9.07;5.90;;;;;;;;;;13215335;22;20357;-96
2023/05/28 22:02:03;;;;;;;9.07;6.28;;;;;;;;;;13188220;22;20837;-95
2023/05/28 22:07:06;;;;;;;10.53;6.60;;;;;;;;;;13180450;22;20391;-95
2023/05/28 22:12:11;;;;;;;8.73;6.30;;;;;;;;;;13180832;22;20361;-96
2023/05/28 22:17:17;;;;;;;11.02;6.82;;;;;;;;;;13180984;22;20383;-95
2023/05/28 22:22:20;;;;;;;9.85;6.90;;;;;;;;;;13181740;22;20377;-95
2023/05/28 22:27:23;;;;;;;10.45;6.57;;;;;;;;;;13179709;22;20470;-95
2023/05/28 22:32:26;;;;;;;10.20;6.40;;;;;;;;;;13180604;22;20358;-94
2023/05/28 22:37:28;;;;;;;9.33;6.87;;;;;;;;;;13180722;22;20354;-95
2023/05/28 22:42:33;;;;;;;9.85;6.88;;;;;;;;;;13181348;22;20377;-95
2023/05/28 22:47:36;;;;;;;10.25;7.03;;;;;;;;;;13180351;22;20384;-96
2023/05/28 22:52:39;;;;;;;9.82;6.60;;;;;;;;;;13180478;22;20384;-95
2023/05/28 22:57:43;;;;;;;11.57;6.80;;;;;;;;;;13180780;22;20407;-96
2023/05/28 23:02:46;;;;;;;9.45;6.50;;;;;;;;;;13181041;22;20382;-96
2023/05/28 23:07:48;;;;;;;10.03;6.37;;;;;;;;;;13177577;22;20383;-95
2023/05/28 23:12:52;;;;;;;10.15;7.05;;;;;;;;;;13183896;22;20414;-95
2023/05/28 23:17:54;;;;;;;11.02;7.72;;;;;;;;;;13182146;22;20430;-95
2023/05/28 23:22:56;;;;;;;11.77;7.03;;;;;;;;;;13202267;22;20399;-95
2023/05/28 23:28:00;;;;;;;11.63;7.72;;;;;;;;;;13179705;22;20372;-96
2023/05/28 23:33:03;;;;;;;10.63;7.10;;;;;;;;;;13202216;22;20361;-95
2023/05/28 23:38:06;;;;;;;12.37;7.50;;;;;;;;;;13127447;22;20431;-96
2023/05/28 23:43:10;;;;;;;11.67;7.30;;;;;;;;;;13046348;22;20435;-95
2023/05/28 23:48:12;;;;;;;11.87;7.60;;;;;;;;;;13047464;22;20412;-96
2023/05/28 23:53:14;;;;;;;11.10;7.80;;;;;;;;;;13045414;22;20357;-95
2023/05/28 23:58:18;;;;;;;10.07;7.60;;;;;;;;;;13046272;22;20377;-96
